Portada
METAR-TAF:

METAR-TAF

Aeroports :

Bordj Badji Mokhtar, Algèria

latitud: 21-22-30N, longitud: 000-55-26E, altitud: 396 m

Observació

L'informe es va fer fa 10 hores i 18 minuts, a les 18:00 UTC
Vent 7 kt del Est
Temperatura 40°C
Pressió 1011 hPa
Visibilitat 10 km o més
sense núvols per sota de 1500 mi sense presència de cumulonimbus.

METAR: DATM 241800Z 08007KT CAVOK 40/// Q1011

Hora: 05:18 (04:18 UTC)

Pronòstic

L'informe es va fer fa 14 hores i 18 minuts, a les 14:00 UTC
Pronòstic vàlid del 24 a les 15 UTC al 24 a les 24 UTC
Vent 10 kt del Sud
Visibilitat 10 km o més
sense núvols per sota de 1500 mi sense presència de cumulonimbus.
Evolucionant progressivament
l' 24 a les 16 UTC al 24 a les 18 UTC
Vent 8 kt del Est

TAF: DATM 241400Z 2415/2424 18010KT CAVOK BECMG 2416/2418 08008KT

Observacions i pronòstics meteorològics de més de 4000 aeroports (METAR i TAF).

Les estacions disponibles són els punts grocs i vermells al mapa.

Posi el ratolí al punt desitjat per veure el nom de l'estació.

Feu clic per veure les observacions i els pronòstics meteorològics.

Per canviar el mapa: feu clic els botons verds amb una creu de color negre per apropar; al botó verd amb un guió per allunyar la imatge; o en les fletxes verdes per a mapes adjacents.


METAR-TAF: